createdAt,value
2024-05-09T00:00:50.007Z,100299.97
2024-05-09T00:05:43.196Z,100293.84
2024-05-09T00:10:37.962Z,100293.31
2024-05-09T00:15:31.633Z,100294.06
2024-05-09T00:20:28.605Z,100286.94
2024-05-09T00:25:28.196Z,100292.22
2024-05-09T00:30:27.983Z,100292.22
2024-05-09T00:35:25.290Z,100297.66
2024-05-09T00:40:26.521Z,100299.47
2024-05-09T00:45:22.969Z,100295.97
2024-05-09T00:50:19.450Z,100294.06
2024-05-09T00:55:16.526Z,100295.00
2024-05-09T01:00:18.439Z,100295.97
2024-05-09T01:05:18.647Z,100290.56
2024-05-09T01:10:17.025Z,100298.72
2024-05-09T01:15:12.920Z,100292.78
2024-05-09T01:20:06.395Z,100299.69
2024-05-09T01:25:02.314Z,100301.69
2024-05-09T01:29:54.357Z,100314.44
2024-05-09T01:34:46.239Z,100311.88
2024-05-09T01:39:38.238Z,100312.81
2024-05-09T01:44:30.139Z,100312.72
2024-05-09T01:49:22.423Z,100305.94
2024-05-09T01:54:14.361Z,100305.94
2024-05-09T01:59:07.613Z,100304.78
2024-05-09T02:03:59.686Z,100300.31
2024-05-09T02:08:51.710Z,100306.56
2024-05-09T02:13:43.846Z,100303.28
2024-05-09T02:18:36.165Z,100299.56
2024-05-09T02:23:28.194Z,100300.41
2024-05-09T02:28:21.153Z,100287.47
2024-05-09T02:33:14.422Z,100297.97
2024-05-09T02:38:06.872Z,100297.97
2024-05-09T02:42:58.720Z,100291.72
2024-05-09T02:47:50.808Z,100281.44
2024-05-09T02:52:42.768Z,100288.31
2024-05-09T02:57:34.609Z,100288.31
2024-05-09T03:02:27.213Z,100279.63
2024-05-09T03:07:20.262Z,100286.41
2024-05-09T03:12:12.394Z,100290.84
2024-05-09T03:17:04.509Z,100285.66
2024-05-09T03:21:56.452Z,100282.06
2024-05-09T03:26:48.538Z,100284.84
2024-05-09T03:31:40.438Z,100283.13
2024-05-09T03:36:32.247Z,100292.78
2024-05-09T03:41:24.165Z,100305.94
2024-05-09T03:46:16.026Z,100305.94
2024-05-09T03:51:08.679Z,100314.00
2024-05-09T03:56:00.981Z,100304.22
2024-05-09T04:00:52.934Z,100315.59
2024-05-09T04:05:45.021Z,100317.28
2024-05-09T04:10:37.968Z,100322.03
2024-05-09T04:15:29.851Z,100327.34
2024-05-09T04:20:32.838Z,100325.66
2024-05-09T04:25:31.962Z,100332.66
2024-05-09T04:30:34.296Z,100334.34
2024-05-09T04:35:30.596Z,100336.81
2024-05-09T04:40:30.771Z,100336.81
2024-05-09T04:45:25.540Z,100345.50
2024-05-09T04:50:25.348Z,100341.34
2024-05-09T04:55:25.588Z,100347.41
2024-05-09T05:00:25.740Z,100344.00
2024-05-09T05:05:24.052Z,100346.78
2024-05-09T05:10:21.588Z,100351.00
2024-05-09T05:15:20.894Z,100355.47
2024-05-09T05:20:15.345Z,100364.28
2024-05-09T05:25:12.806Z,100372.34
2024-05-09T05:30:07.501Z,100374.13
2024-05-09T05:35:01.383Z,100378.47
2024-05-09T05:39:53.262Z,100386.31
2024-05-09T05:44:46.747Z,100378.69
2024-05-09T05:49:38.853Z,100377.72
2024-05-09T05:54:30.698Z,100378.47
2024-05-09T05:59:24.183Z,100389.09
2024-05-09T06:04:17.595Z,100386.13
2024-05-09T06:09:09.510Z,100398.44
2024-05-09T06:14:01.773Z,100403.00
2024-05-09T06:18:53.935Z,100399.81
2024-05-09T06:23:49.515Z,100401.50
2024-05-09T06:28:41.408Z,100402.34
2024-05-09T06:33:33.732Z,100405.00
2024-05-09T06:38:26.736Z,100405.13
2024-05-09T06:43:19.777Z,100407.78
2024-05-09T06:48:12.269Z,100405.13
2024-05-09T06:53:04.462Z,100406.91
2024-05-09T06:57:56.779Z,100410.50
2024-05-09T07:02:48.689Z,100410.50
2024-05-09T07:07:40.590Z,100414.84
2024-05-09T07:12:32.543Z,100412.13
2024-05-09T07:17:24.847Z,100417.13
2024-05-09T07:22:16.809Z,100410.00
2024-05-09T07:27:08.571Z,100417.00
2024-05-09T07:32:00.495Z,100418.69
2024-05-09T07:36:52.603Z,100409.78
2024-05-09T07:41:44.450Z,100419.44
2024-05-09T07:53:08.651Z,100419.34
2024-05-09T07:56:43.330Z,100412.44
2024-05-09T08:01:35.373Z,100411.38
2024-05-09T08:06:27.411Z,100420.09
2024-05-09T08:11:22.138Z,100414.91
2024-05-09T08:16:14.657Z,100419.16
2024-05-09T08:21:06.680Z,100427.09
2024-05-09T08:25:58.494Z,100433.25
2024-05-09T08:30:50.649Z,100429.75
2024-05-09T08:35:42.707Z,100435.88
2024-05-09T08:40:37.321Z,100423.50
2024-05-09T08:45:32.991Z,100434.81
2024-05-09T08:50:32.305Z,100427.09
2024-05-09T08:55:30.288Z,100427.72
2024-05-09T09:00:33.381Z,100432.94
2024-05-09T09:05:31.429Z,100432.84
2024-05-09T09:10:29.955Z,100425.72
2024-05-09T09:15:27.348Z,100434.44
2024-05-09T09:20:26.334Z,100429.25
2024-05-09T09:25:25.385Z,100424.00
2024-05-09T09:30:30.879Z,100431.78
2024-05-09T09:35:28.999Z,100429.25
2024-05-09T09:40:31.401Z,100442.38
2024-05-09T09:45:26.289Z,100443.22
2024-05-09T09:50:24.101Z,100431.66
2024-05-09T09:55:25.007Z,100431.78
2024-05-09T10:00:24.136Z,100429.75
2024-05-09T10:05:19.954Z,100428.19
2024-05-09T10:10:16.230Z,100431.56
2024-05-09T10:15:09.542Z,100430.91
2024-05-09T10:20:14.866Z,100429.66
2024-05-09T10:25:13.913Z,100432.22
2024-05-09T10:30:11.467Z,100427.75
2024-05-09T10:35:07.804Z,100419.91
2024-05-09T10:40:01.190Z,100413.00
2024-05-09T10:44:53.526Z,100417.31
2024-05-09T10:49:45.641Z,100419.03
2024-05-09T10:54:38.763Z,100417.13
2024-05-09T10:59:34.652Z,100414.47
2024-05-09T11:04:28.007Z,100410.34
2024-05-09T11:09:20.187Z,100398.03
2024-05-09T11:14:14.009Z,100399.50
2024-05-09T11:19:13.195Z,100402.91
2024-05-09T11:24:08.688Z,100391.66
2024-05-09T11:29:02.963Z,100397.81
2024-05-09T11:33:55.031Z,100390.59
2024-05-09T11:38:47.268Z,100397.59
2024-05-09T11:43:39.119Z,100385.28
2024-05-09T11:48:31.390Z,100387.84
2024-05-09T11:53:23.621Z,100390.50
2024-05-09T11:58:17.889Z,100377.44
2024-05-09T12:03:10.555Z,100374.59
2024-05-09T12:08:02.747Z,100362.38
2024-05-09T12:12:54.714Z,100370.25
2024-05-09T12:17:49.580Z,100374.59
2024-05-09T12:22:42.523Z,100364.06
2024-05-09T12:27:36.455Z,100360.47
2024-05-09T12:32:28.528Z,100362.28
2024-05-09T12:37:20.525Z,100356.97
2024-05-09T12:42:19.257Z,100356.97
2024-05-09T12:47:17.780Z,100344.53
2024-05-09T12:52:09.895Z,100345.69
2024-05-09T12:57:02.002Z,100354.19
2024-05-09T13:01:54.416Z,100349.84
2024-05-09T13:06:47.284Z,100334.78
2024-05-09T13:11:39.605Z,100329.06
2024-05-09T13:16:31.580Z,100333.94
2024-05-09T13:21:23.413Z,100322.81
2024-05-09T13:26:15.250Z,100318.00
2024-05-09T13:31:07.132Z,100317.81
2024-05-09T13:35:59.593Z,100307.28
2024-05-09T13:40:51.702Z,100304.44
2024-05-09T13:45:43.894Z,100307.19
2024-05-09T13:50:36.979Z,100290.53
2024-05-09T13:55:29.094Z,100277.38
2024-05-09T14:05:16.511Z,100256.47
2024-05-09T14:10:19.446Z,100258.91
2024-05-09T14:15:15.353Z,100269.50
2024-05-09T14:20:11.612Z,100266.75
2024-05-09T14:25:03.963Z,100268.47
2024-05-09T14:29:55.889Z,100243.09
2024-05-09T14:34:48.047Z,100251.56
2024-05-09T14:39:40.167Z,100248.91
2024-05-09T14:44:32.075Z,100251.56
2024-05-09T14:49:23.934Z,100247.25
2024-05-09T14:54:16.293Z,100240.00
2024-05-09T14:59:09.178Z,100243.59
2024-05-09T15:04:01.255Z,100243.59
2024-05-09T15:08:56.644Z,100244.34
2024-05-09T15:13:48.726Z,100245.31
2024-05-09T15:18:43.612Z,100234.81
2024-05-09T15:23:36.085Z,100243.50
2024-05-09T15:28:28.073Z,100252.31
2024-05-09T15:33:19.997Z,100240.84
2024-05-09T15:38:14.201Z,100239.03
2024-05-09T15:43:06.995Z,100241.63
2024-05-09T15:47:59.724Z,100235.56
2024-05-09T15:52:51.759Z,100239.81
2024-05-09T15:57:46.105Z,100243.31
2024-05-09T16:02:38.118Z,100231.03
2024-05-09T16:07:30.162Z,100232.81
2024-05-09T16:12:21.996Z,100231.72
2024-05-09T16:17:14.313Z,100235.25
2024-05-09T16:22:06.194Z,100218.47
2024-05-09T16:26:58.249Z,100214.22
2024-05-09T16:31:50.199Z,100217.50
2024-05-09T16:36:43.924Z,100214.84
2024-05-09T16:41:36.302Z,100214.03
2024-05-09T16:46:28.409Z,100215.72
2024-05-09T16:51:20.268Z,100214.97
2024-05-09T16:56:13.054Z,100213.16
2024-05-09T17:01:05.265Z,100205.09
2024-05-09T17:05:57.658Z,100206.06
2024-05-09T17:10:50.077Z,100205.19
2024-05-09T17:15:42.347Z,100206.06
2024-05-09T17:20:36.694Z,100206.16
2024-05-09T17:25:29.539Z,100205.94
2024-05-09T17:30:29.029Z,100210.41
2024-05-09T17:35:26.782Z,100210.41
2024-05-09T17:40:27.400Z,100223.56
2024-05-09T17:45:24.562Z,100215.72
2024-05-09T17:50:23.867Z,100214.03
2024-05-09T17:55:19.805Z,100220.91
2024-05-09T18:00:14.947Z,100218.25
2024-05-09T18:05:10.695Z,100223.56
2024-05-09T18:10:03.227Z,100227.28
2024-05-09T18:14:55.775Z,100228.88
2024-05-09T18:19:47.854Z,100229.72
2024-05-09T18:24:39.837Z,100233.44
2024-05-09T18:29:31.841Z,100239.81
2024-05-09T18:34:23.800Z,100245.00
2024-05-09T18:39:16.937Z,100255.63
2024-05-09T18:44:09.255Z,100236.09
2024-05-09T18:49:01.409Z,100254.78
2024-05-09T18:53:55.248Z,100254.78
2024-05-09T18:58:47.424Z,100271.44
2024-05-09T19:03:39.544Z,100283.00
2024-05-09T19:08:31.569Z,100287.56
2024-05-09T19:13:25.313Z,100296.28
2024-05-09T19:18:17.722Z,100301.69
2024-05-09T19:23:11.633Z,100310.38
2024-05-09T19:28:05.469Z,100321.13
2024-05-09T19:32:58.245Z,100332.56
2024-05-09T19:37:51.584Z,100331.72
2024-05-09T19:42:43.450Z,100317.38
2024-05-09T19:47:35.559Z,100350.31
2024-05-09T19:52:27.534Z,100358.16
2024-05-09T19:57:19.546Z,100358.38
2024-05-09T20:02:11.731Z,100364.41
2024-05-09T20:07:04.052Z,100367.94
2024-05-09T20:11:55.863Z,100375.88
2024-05-09T20:16:47.936Z,100376.84
2024-05-09T20:21:43.279Z,100381.94
2024-05-09T20:26:35.268Z,100380.25
2024-05-09T20:31:27.137Z,100379.38
2024-05-09T20:36:18.915Z,100379.28
2024-05-09T20:41:10.819Z,100379.28
2024-05-09T20:46:03.440Z,100380.13
2024-05-09T20:50:55.296Z,100381.94
2024-05-09T20:55:47.295Z,100376.63
2024-05-09T21:00:42.822Z,100384.47
2024-05-09T21:05:37.221Z,100389.78
2024-05-09T21:10:32.903Z,100392.44
2024-05-09T21:15:25.840Z,100391.69
2024-05-09T21:20:23.620Z,100391.50
2024-05-09T21:25:20.391Z,100394.97
2024-05-09T21:30:18.759Z,100387.13
2024-05-09T21:35:19.678Z,100374.81
2024-05-09T21:40:16.951Z,100390.00
2024-05-09T21:45:15.940Z,100391.69
2024-05-09T21:50:08.132Z,100392.66
2024-05-09T21:55:00.233Z,100391.06
2024-05-09T21:59:52.183Z,100390.41
2024-05-09T22:04:44.199Z,100385.88
2024-05-09T22:09:36.191Z,100401.78
2024-05-09T22:14:28.230Z,100408.84
2024-05-09T22:19:20.102Z,100413.31
2024-05-09T22:24:12.091Z,100414.16
2024-05-09T22:29:05.723Z,100411.50
2024-05-09T22:33:57.770Z,100414.94
2024-05-09T22:38:49.761Z,100414.09
2024-05-09T22:43:41.738Z,100411.44
2024-05-09T22:48:33.717Z,100415.88
2024-05-09T22:53:26.033Z,100414.09
2024-05-09T22:58:18.223Z,100416.75
2024-05-09T23:03:10.273Z,100417.59
2024-05-09T23:08:02.783Z,100414.16
2024-05-09T23:12:55.235Z,100409.75
2024-05-09T23:17:47.278Z,100411.44
2024-05-09T23:22:39.226Z,100412.44
2024-05-09T23:27:31.042Z,100423.94
2024-05-09T23:32:23.306Z,100423.00
2024-05-09T23:37:15.177Z,100425.56
2024-05-09T23:42:07.476Z,100416.75
2024-05-09T23:46:59.477Z,100412.41
2024-05-09T23:51:51.285Z,100419.41
2024-05-09T23:56:43.072Z,100410.47
